createdAt,value
2018-01-28T00:01:34.327Z,41.08
2018-01-28T00:04:00.661Z,40.58
2018-01-28T00:06:26.996Z,37.65
2018-01-28T00:08:53.227Z,41.47
2018-01-28T00:11:19.571Z,39.25
2018-01-28T00:13:45.890Z,40.40
2018-01-28T00:16:12.176Z,40.90
2018-01-28T00:18:38.477Z,40.85
2018-01-28T00:21:04.729Z,40.65
2018-01-28T00:23:31.066Z,39.05
2018-01-28T00:25:57.291Z,41.65
2018-01-28T00:28:23.557Z,39.88
2018-01-28T00:30:49.802Z,41.15
2018-01-28T00:33:16.052Z,40.95
2018-01-28T00:35:42.327Z,40.47
2018-01-28T00:38:08.603Z,40.90
2018-01-28T00:40:34.856Z,41.85
2018-01-28T00:43:01.113Z,39.80
2018-01-28T00:45:27.372Z,39.83
2018-01-28T00:47:53.599Z,44.42
2018-01-28T00:50:19.858Z,40.10
2018-01-28T00:52:46.120Z,40.58
2018-01-28T00:55:13.113Z,40.33
2018-01-28T00:57:39.371Z,39.85
2018-01-28T01:00:05.643Z,41.75
2018-01-28T01:02:31.903Z,36.97
2018-01-28T01:04:58.859Z,40.88
2018-01-28T01:07:25.883Z,41.58
2018-01-28T01:09:52.131Z,38.08
2018-01-28T01:12:18.394Z,40.95
2018-01-28T01:14:44.671Z,38.13
2018-01-28T01:17:10.919Z,39.55
2018-01-28T01:19:37.147Z,38.50
2018-01-28T01:22:03.653Z,39.70
2018-01-28T01:24:29.889Z,38.55
2018-01-28T01:26:56.148Z,36.53
2018-01-28T01:29:22.437Z,38.72
2018-01-28T01:31:48.671Z,38.05
2018-01-28T01:34:14.964Z,38.50
2018-01-28T01:36:41.202Z,38.38
2018-01-28T01:39:07.479Z,38.38
2018-01-28T01:41:33.723Z,37.72
2018-01-28T01:43:59.975Z,36.75
2018-01-28T01:46:26.528Z,36.92
2018-01-28T01:48:52.775Z,40.00
2018-01-28T01:51:18.991Z,37.13
2018-01-28T01:53:45.247Z,34.95
2018-01-28T01:56:11.484Z,34.92
2018-01-28T01:58:37.733Z,32.03
2018-01-28T02:01:04.000Z,32.10
2018-01-28T02:03:30.248Z,30.08
2018-01-28T02:05:56.513Z,27.42
2018-01-28T02:08:23.510Z,29.42
2018-01-28T02:10:49.771Z,30.65
2018-01-28T02:13:16.050Z,25.00
2018-01-28T02:15:43.053Z,26.58
2018-01-28T02:18:09.294Z,28.75
2018-01-28T02:20:35.811Z,28.35
2018-01-28T02:23:02.860Z,24.87
2018-01-28T02:25:29.837Z,23.80
2018-01-28T02:27:56.123Z,24.10
2018-01-28T02:30:22.367Z,24.75
2018-01-28T02:32:48.616Z,24.45
2018-01-28T02:35:14.841Z,23.17
2018-01-28T02:37:41.139Z,24.20
2018-01-28T02:40:07.377Z,24.65
2018-01-28T02:42:33.647Z,22.62
2018-01-28T02:44:59.907Z,24.67
2018-01-28T02:47:26.147Z,22.83
2018-01-28T02:49:52.680Z,24.55
2018-01-28T02:52:18.948Z,23.30
2018-01-28T02:54:45.186Z,22.02
2018-01-28T02:57:11.414Z,23.95
2018-01-28T02:59:37.646Z,26.20
2018-01-28T03:02:04.221Z,25.35
2018-01-28T03:04:30.457Z,25.62
2018-01-28T03:06:56.719Z,22.65
2018-01-28T03:09:23.713Z,23.90
2018-01-28T03:11:49.953Z,23.52
2018-01-28T03:14:16.233Z,25.30
2018-01-28T03:16:42.474Z,24.95
2018-01-28T03:19:08.690Z,23.90
2018-01-28T03:21:34.941Z,23.95
2018-01-28T03:24:01.207Z,23.33
2018-01-28T03:26:27.459Z,24.42
2018-01-28T03:28:53.686Z,24.77
2018-01-28T03:31:20.042Z,26.75
2018-01-28T03:33:46.283Z,25.80
2018-01-28T03:36:12.558Z,23.67
2018-01-28T03:38:38.832Z,23.65
2018-01-28T03:41:05.069Z,23.55
2018-01-28T03:43:31.324Z,22.73
2018-01-28T03:45:57.604Z,26.02
2018-01-28T03:48:24.627Z,26.50
2018-01-28T03:50:51.195Z,27.17
2018-01-28T03:53:17.515Z,25.60
2018-01-28T03:55:43.748Z,25.45
2018-01-28T03:58:16.918Z,25.12
2018-01-28T04:00:43.163Z,24.48
2018-01-28T04:03:09.436Z,23.38
2018-01-28T04:05:35.721Z,26.55
2018-01-28T04:08:02.742Z,24.50
2018-01-28T04:10:28.990Z,24.98
2018-01-28T04:12:55.273Z,25.25
2018-01-28T04:15:21.488Z,23.98
2018-01-28T04:17:47.739Z,24.27
2018-01-28T04:20:14.747Z,26.45
2018-01-28T04:22:40.975Z,26.05
2018-01-28T04:25:07.283Z,27.08
2018-01-28T04:27:34.279Z,24.05
2018-01-28T04:30:00.548Z,27.87
2018-01-28T04:32:26.817Z,24.98
2018-01-28T04:34:54.075Z,22.48
2018-01-28T04:37:20.316Z,20.98
2018-01-28T04:39:46.566Z,22.13
2018-01-28T04:42:13.580Z,22.30
2018-01-28T04:44:39.818Z,21.48
2018-01-28T04:47:06.411Z,20.95
2018-01-28T04:49:33.394Z,19.60
2018-01-28T04:51:59.632Z,19.60
2018-01-28T04:54:25.880Z,19.20
2018-01-28T04:56:52.118Z,20.98
2018-01-28T04:59:19.447Z,18.73
2018-01-28T05:01:50.339Z,19.70
2018-01-28T05:04:16.606Z,19.40
2018-01-28T05:06:42.890Z,19.85
2018-01-28T05:09:09.947Z,19.83
2018-01-28T05:11:37.000Z,18.92
2018-01-28T05:14:04.041Z,20.62
2018-01-28T05:16:30.292Z,21.25
2018-01-28T05:18:56.561Z,22.17
2018-01-28T05:21:22.813Z,21.50
2018-01-28T05:23:49.148Z,18.83
2018-01-28T05:26:15.390Z,21.62
2018-01-28T05:28:41.663Z,19.55
2018-01-28T05:31:07.888Z,20.37
2018-01-28T05:33:34.122Z,20.33
2018-01-28T05:36:00.346Z,20.48
2018-01-28T05:38:26.589Z,21.98
2018-01-28T05:40:52.885Z,22.62
2018-01-28T05:43:19.147Z,21.23
2018-01-28T05:45:45.357Z,22.65
2018-01-28T05:48:11.618Z,23.25
2018-01-28T05:50:37.857Z,23.45
2018-01-28T05:53:04.093Z,20.70
2018-01-28T05:55:30.363Z,22.73
2018-01-28T05:57:56.624Z,22.25
2018-01-28T06:00:22.882Z,22.77
2018-01-28T06:02:49.171Z,21.23
2018-01-28T06:05:15.445Z,21.73
2018-01-28T06:07:41.673Z,21.55
2018-01-28T06:10:08.650Z,20.58
2018-01-28T06:12:34.950Z,22.83
2018-01-28T06:15:01.204Z,23.62
2018-01-28T06:17:28.203Z,22.27
2018-01-28T06:19:54.457Z,23.85
2018-01-28T06:22:20.705Z,24.50
2018-01-28T06:24:46.956Z,22.60
2018-01-28T06:27:13.215Z,21.67
2018-01-28T06:29:39.496Z,21.25
2018-01-28T06:32:05.773Z,23.02
2018-01-28T06:34:32.030Z,23.30
2018-01-28T06:36:58.268Z,23.75
2018-01-28T06:39:24.558Z,23.58
2018-01-28T06:41:50.817Z,22.00
2018-01-28T06:44:17.068Z,22.60
2018-01-28T06:46:44.028Z,23.27
2018-01-28T06:49:10.301Z,22.30
2018-01-28T06:51:36.574Z,23.62
2018-01-28T06:54:02.836Z,21.23
2018-01-28T06:56:29.092Z,21.92
2018-01-28T06:58:55.350Z,21.20
2018-01-28T07:01:21.591Z,21.08
2018-01-28T07:03:47.881Z,21.17
2018-01-28T07:06:14.140Z,20.70
2018-01-28T07:08:40.432Z,18.60
2018-01-28T07:11:07.416Z,21.90
2018-01-28T07:13:33.713Z,22.90
2018-01-28T07:15:59.965Z,18.80
2018-01-28T07:18:26.205Z,20.20
2018-01-28T07:20:53.210Z,20.90
2018-01-28T07:23:19.449Z,20.40
2018-01-28T07:25:45.732Z,18.52
2018-01-28T07:28:11.978Z,19.02
2018-01-28T07:30:38.233Z,19.52
2018-01-28T07:33:04.493Z,19.95
2018-01-28T07:35:30.741Z,18.08
2018-01-28T07:37:57.013Z,20.70
2018-01-28T07:40:24.053Z,18.27
2018-01-28T07:42:50.340Z,18.45
2018-01-28T07:45:17.335Z,20.15
2018-01-28T07:47:44.339Z,20.05
2018-01-28T07:50:10.639Z,16.40
2018-01-28T07:52:36.879Z,18.37
2018-01-28T07:55:03.157Z,19.17
2018-01-28T07:57:29.445Z,18.95
2018-01-28T07:59:56.462Z,17.17
2018-01-28T08:02:22.663Z,18.08
2018-01-28T08:04:48.895Z,19.60
2018-01-28T08:07:15.919Z,20.00
2018-01-28T08:09:44.948Z,18.30
2018-01-28T08:12:13.867Z,18.40
2018-01-28T08:14:40.153Z,19.35
2018-01-28T08:17:07.185Z,18.08
2018-01-28T08:19:33.455Z,18.20
2018-01-28T08:21:59.774Z,20.92
2018-01-28T08:24:26.098Z,23.30
2018-01-28T08:26:56.313Z,20.25
2018-01-28T08:29:23.337Z,20.55
2018-01-28T08:31:49.596Z,19.90
2018-01-28T08:34:15.892Z,18.80
2018-01-28T08:36:42.212Z,15.77
2018-01-28T08:39:08.489Z,17.40
2018-01-28T08:41:34.735Z,17.85
2018-01-28T08:44:01.019Z,17.42
2018-01-28T08:46:28.040Z,18.87
2018-01-28T08:48:54.316Z,17.80
2018-01-28T08:51:21.291Z,17.67
2018-01-28T08:53:48.321Z,16.33
2018-01-28T08:56:14.569Z,18.20
2018-01-28T08:58:40.861Z,17.55
2018-01-28T09:01:07.124Z,16.27
2018-01-28T09:03:33.404Z,16.23
2018-01-28T09:05:59.709Z,14.75
2018-01-28T09:08:25.981Z,15.95
2018-01-28T09:10:53.012Z,13.77
2018-01-28T09:13:19.543Z,15.48
2018-01-28T09:15:45.827Z,14.65
2018-01-28T09:18:12.878Z,15.18
2018-01-28T09:20:39.905Z,14.30
2018-01-28T09:23:06.257Z,13.52
2018-01-28T09:25:32.571Z,14.55
2018-01-28T09:27:58.854Z,13.60
2018-01-28T09:30:25.105Z,12.75
2018-01-28T09:32:52.105Z,12.80
2018-01-28T09:35:18.355Z,13.05
2018-01-28T09:37:44.602Z,11.38
2018-01-28T09:40:10.936Z,11.57
2018-01-28T09:42:37.181Z,11.27
2018-01-28T09:45:03.474Z,11.50
2018-01-28T09:47:29.742Z,12.75
2018-01-28T09:49:56.011Z,11.63
2018-01-28T09:52:22.298Z,11.35
2018-01-28T09:54:48.577Z,11.77
2018-01-28T09:57:15.597Z,10.50
2018-01-28T09:59:41.867Z,11.05
2018-01-28T10:02:08.165Z,10.65
2018-01-28T10:04:34.429Z,10.85
2018-01-28T10:07:01.441Z,9.95
2018-01-28T10:09:27.708Z,9.77
2018-01-28T10:11:53.978Z,10.77
2018-01-28T10:14:20.997Z,11.27
2018-01-28T10:16:47.265Z,10.52
2018-01-28T10:19:13.520Z,9.75
2018-01-28T10:21:40.562Z,11.40
2018-01-28T10:24:07.568Z,141.50
2018-01-28T10:26:34.560Z,14.32
2018-01-28T10:29:00.826Z,44.22
2018-01-28T10:31:27.123Z,10.68
2018-01-28T10:33:53.443Z,15.63
2018-01-28T10:36:19.690Z,9.50
2018-01-28T10:38:45.976Z,9.55
2018-01-28T10:41:12.279Z,9.43
2018-01-28T10:43:38.626Z,9.33
2018-01-28T10:46:04.928Z,8.83
2018-01-28T10:48:32.776Z,10.63
2018-01-28T10:50:59.063Z,8.00
2018-01-28T10:53:25.371Z,9.70
2018-01-28T10:55:51.646Z,11.03
2018-01-28T10:58:17.931Z,9.15
2018-01-28T11:00:44.232Z,10.18
2018-01-28T11:03:10.504Z,9.38
2018-01-28T11:05:36.769Z,9.88
2018-01-28T11:08:03.042Z,9.65
2018-01-28T11:10:29.340Z,10.50
2018-01-28T11:12:55.768Z,10.10
2018-01-28T11:15:22.055Z,9.50
2018-01-28T11:17:48.347Z,8.80
2018-01-28T11:20:14.661Z,9.45
2018-01-28T11:22:40.971Z,9.43
2018-01-28T11:25:07.357Z,9.40
2018-01-28T11:27:33.716Z,8.57
2018-01-28T11:30:00.013Z,9.40
2018-01-28T11:32:27.021Z,8.73
2018-01-28T11:34:53.366Z,8.27
2018-01-28T11:37:19.595Z,12.30
2018-01-28T11:39:45.900Z,8.30
2018-01-28T11:42:13.348Z,8.35
2018-01-28T11:44:39.771Z,9.90
2018-01-28T11:47:06.106Z,7.90
2018-01-28T11:49:32.415Z,9.30
2018-01-28T11:51:58.719Z,8.50
2018-01-28T11:54:25.030Z,8.77
2018-01-28T11:56:52.046Z,8.20
2018-01-28T11:59:18.358Z,8.63
2018-01-28T12:01:44.660Z,8.55
2018-01-28T12:04:10.940Z,7.57
2018-01-28T12:06:37.240Z,9.27
2018-01-28T12:09:03.610Z,8.70
2018-01-28T12:11:29.880Z,8.45
2018-01-28T12:13:56.931Z,8.55
2018-01-28T12:16:23.225Z,9.80
2018-01-28T12:18:49.531Z,8.30
2018-01-28T12:21:16.588Z,9.13
2018-01-28T12:23:43.708Z,7.77
2018-01-28T12:26:10.002Z,7.20
2018-01-28T12:28:37.086Z,8.70
2018-01-28T12:31:03.429Z,7.37
2018-01-28T12:33:29.751Z,7.07
2018-01-28T12:35:56.028Z,8.70
2018-01-28T12:38:22.429Z,7.67
2018-01-28T12:40:49.464Z,7.67
2018-01-28T12:43:15.720Z,8.47
2018-01-28T12:45:42.764Z,7.00
2018-01-28T12:48:09.050Z,7.60
2018-01-28T12:50:35.353Z,7.00
2018-01-28T12:53:01.741Z,6.73
2018-01-28T12:55:28.111Z,7.27
2018-01-28T12:57:54.487Z,7.10
2018-01-28T13:00:20.893Z,6.50
2018-01-28T13:02:47.193Z,9.33
2018-01-28T13:05:14.241Z,7.77
2018-01-28T13:07:41.269Z,6.30
2018-01-28T13:10:07.643Z,6.87
2018-01-28T13:12:34.762Z,6.37
2018-01-28T13:15:01.104Z,5.80
2018-01-28T13:17:27.463Z,7.67
2018-01-28T13:19:53.739Z,6.50
2018-01-28T13:22:20.786Z,7.00
2018-01-28T13:24:47.168Z,6.87
2018-01-28T13:27:13.498Z,5.73
2018-01-28T13:29:40.546Z,5.97
2018-01-28T13:32:07.568Z,5.77
2018-01-28T13:34:33.907Z,6.50
2018-01-28T13:37:00.236Z,4.57
2018-01-28T13:39:26.602Z,4.50
2018-01-28T13:41:52.956Z,4.83
2018-01-28T13:44:19.274Z,5.50
2018-01-28T13:46:45.614Z,5.33
2018-01-28T13:49:11.934Z,5.53
2018-01-28T13:51:38.311Z,4.70
2018-01-28T13:54:04.606Z,4.80
2018-01-28T13:56:31.006Z,4.33
2018-01-28T13:58:57.339Z,4.57
2018-01-28T14:01:23.707Z,4.30
2018-01-28T14:03:50.826Z,4.77
2018-01-28T14:06:17.184Z,5.70
2018-01-28T14:08:43.517Z,6.03
2018-01-28T14:11:09.868Z,4.80
2018-01-28T14:13:36.265Z,7.67
2018-01-28T14:16:02.643Z,6.00
2018-01-28T14:18:29.014Z,4.30
2018-01-28T14:20:55.322Z,5.20
2018-01-28T14:23:21.698Z,4.20
2018-01-28T14:25:47.979Z,5.80
2018-01-28T14:28:14.994Z,5.10
2018-01-28T14:30:41.352Z,5.37
2018-01-28T14:33:07.741Z,5.30
2018-01-28T14:35:34.034Z,4.60
2018-01-28T14:38:00.366Z,5.13
2018-01-28T14:40:26.739Z,4.40
2018-01-28T14:42:53.899Z,4.60
2018-01-28T14:45:21.006Z,4.70
2018-01-28T14:47:47.313Z,4.53
2018-01-28T14:50:13.864Z,3.97
2018-01-28T14:52:40.214Z,4.40
2018-01-28T14:55:06.634Z,6.07
2018-01-28T14:57:33.722Z,4.10
2018-01-28T15:00:00.044Z,3.63
2018-01-28T15:02:27.133Z,4.20
2018-01-28T15:04:53.427Z,3.70
2018-01-28T15:07:19.758Z,3.50
2018-01-28T15:09:46.085Z,2.90
2018-01-28T15:12:13.221Z,2.83
2018-01-28T15:14:39.557Z,2.80
2018-01-28T15:17:05.921Z,2.50
2018-01-28T15:19:32.262Z,2.80
2018-01-28T15:21:58.573Z,2.40
2018-01-28T15:24:25.681Z,2.43
2018-01-28T15:26:52.022Z,2.80
2018-01-28T15:29:18.366Z,2.87
2018-01-28T15:31:44.688Z,6.23
2018-01-28T15:34:11.055Z,6.67
2018-01-28T15:36:37.407Z,5.40
2018-01-28T15:39:04.663Z,8.40
2018-01-28T15:41:30.984Z,6.90
2018-01-28T15:43:57.313Z,10.70
2018-01-28T15:46:23.668Z,5.77
2018-01-28T15:48:50.060Z,3.83
2018-01-28T15:51:17.174Z,5.23
2018-01-28T15:53:43.547Z,4.80
2018-01-28T15:56:10.680Z,3.87
2018-01-28T15:58:37.030Z,3.70
2018-01-28T16:01:03.374Z,2.70
2018-01-28T16:03:29.681Z,2.93
2018-01-28T16:05:56.038Z,3.07
2018-01-28T16:08:22.406Z,2.50
2018-01-28T16:10:49.108Z,2.80
2018-01-28T16:13:15.471Z,2.27
2018-01-28T16:15:41.870Z,2.47
2018-01-28T16:18:09.142Z,2.90
2018-01-28T16:20:35.491Z,2.57
2018-01-28T16:23:01.935Z,4.50
2018-01-28T16:25:29.167Z,2.47
2018-01-28T16:27:55.572Z,2.40
2018-01-28T16:30:21.907Z,2.23
2018-01-28T16:32:48.261Z,2.30
2018-01-28T16:35:14.642Z,2.40
2018-01-28T16:37:41.024Z,2.10
2018-01-28T16:40:08.103Z,1.87
2018-01-28T16:42:34.406Z,1.85
2018-01-28T16:45:00.759Z,1.67
2018-01-28T16:47:27.188Z,1.10
2018-01-28T16:49:53.514Z,0.90
2018-01-28T16:52:19.866Z,1.35
2018-01-28T16:54:46.182Z,0.60
2018-01-28T16:57:12.563Z,0.75
2018-01-28T16:59:38.878Z,1.00
2018-01-28T17:02:05.205Z,0.73
2018-01-28T17:04:31.603Z,0.90
2018-01-28T17:06:57.924Z,0.80
2018-01-28T17:09:24.235Z,0.80
2018-01-28T17:11:50.595Z,0.80
2018-01-28T17:14:16.933Z,0.90
2018-01-28T17:16:43.332Z,0.97
2018-01-28T17:19:09.626Z,1.07
2018-01-28T17:21:35.919Z,1.07
2018-01-28T17:24:03.366Z,1.50
2018-01-28T17:26:29.713Z,1.43
2018-01-28T17:28:56.060Z,1.40
2018-01-28T17:31:23.147Z,8.95
2018-01-28T17:33:49.474Z,5.30
2018-01-28T17:36:15.816Z,9.87
2018-01-28T17:38:42.900Z,6.37
2018-01-28T17:41:09.277Z,2.60
2018-01-28T17:43:35.748Z,2.60
2018-01-28T17:46:02.904Z,3.77
2018-01-28T17:48:29.249Z,2.67
2018-01-28T17:50:55.612Z,3.40
2018-01-28T17:53:21.963Z,3.30
2018-01-28T17:55:48.348Z,2.20
2018-01-28T17:58:14.744Z,1.52
2018-01-28T18:00:41.820Z,2.92
2018-01-28T18:03:08.156Z,2.60
2018-01-28T18:05:34.518Z,5.90
2018-01-28T18:08:00.890Z,3.00
2018-01-28T18:10:27.288Z,2.07
2018-01-28T18:12:53.639Z,1.90
2018-01-28T18:15:20.014Z,3.90
2018-01-28T18:17:46.401Z,2.67
2018-01-28T18:20:13.513Z,2.80
2018-01-28T18:22:39.903Z,3.40
2018-01-28T18:25:06.283Z,2.97
2018-01-28T18:27:32.661Z,2.40
2018-01-28T18:29:59.024Z,2.08
2018-01-28T18:32:25.365Z,1.87
2018-01-28T18:34:51.770Z,1.87
2018-01-28T18:37:18.163Z,1.35
2018-01-28T18:39:44.538Z,1.15
2018-01-28T18:42:14.681Z,1.05
2018-01-28T18:44:43.261Z,1.45
2018-01-28T18:47:09.640Z,1.70
2018-01-28T18:49:36.940Z,1.15
2018-01-28T18:52:03.418Z,1.40
2018-01-28T18:54:29.794Z,1.75
2018-01-28T18:56:56.241Z,1.15
2018-01-28T18:59:22.610Z,1.10
2018-01-28T19:01:49.160Z,1.73
2018-01-28T19:04:15.523Z,1.42
2018-01-28T19:06:42.683Z,1.20
2018-01-28T19:09:09.809Z,1.37
2018-01-28T19:11:36.174Z,1.05
2018-01-28T19:14:02.567Z,1.30
2018-01-28T19:16:28.999Z,1.27
2018-01-28T19:18:55.388Z,13.70
2018-01-28T19:21:22.249Z,4.60
2018-01-28T19:23:48.623Z,2.40
2018-01-28T19:26:15.768Z,4.93
2018-01-28T19:28:43.133Z,3.12
2018-01-28T19:31:09.502Z,2.50
2018-01-28T19:33:35.881Z,2.92
2018-01-28T19:36:02.222Z,2.42
2018-01-28T19:38:28.569Z,2.60
2018-01-28T19:40:54.918Z,4.78
2018-01-28T19:43:21.295Z,5.15
2018-01-28T19:45:47.666Z,4.55
2018-01-28T19:48:14.086Z,4.62
2018-01-28T19:50:40.518Z,4.75
2018-01-28T19:53:06.882Z,7.35
2018-01-28T19:55:33.731Z,8.18
2018-01-28T19:58:00.135Z,5.80
2018-01-28T20:00:26.510Z,6.57
2018-01-28T20:02:52.957Z,8.10
2018-01-28T20:05:19.336Z,11.43
2018-01-28T20:07:46.486Z,16.25
2018-01-28T20:10:13.069Z,18.02
2018-01-28T20:12:39.437Z,13.85
2018-01-28T20:15:05.820Z,14.27
2018-01-28T20:17:33.028Z,13.45
2018-01-28T20:19:59.384Z,16.62
2018-01-28T20:22:25.798Z,29.15
2018-01-28T20:24:53.337Z,12.45
2018-01-28T20:27:19.882Z,9.93
2018-01-28T20:29:47.336Z,5.62
2018-01-28T20:32:13.936Z,6.47
2018-01-28T20:34:40.321Z,4.78
2018-01-28T20:37:06.695Z,5.95
2018-01-28T20:39:34.276Z,6.03
2018-01-28T20:42:00.871Z,4.47
2018-01-28T20:44:27.244Z,3.90
2018-01-28T20:46:54.487Z,4.20
2018-01-28T20:49:21.128Z,4.05
2018-01-28T20:51:47.460Z,5.05
2018-01-28T20:54:15.146Z,4.78
2018-01-28T20:56:41.481Z,4.07
2018-01-28T20:59:07.846Z,5.45
2018-01-28T21:01:36.488Z,4.40
2018-01-28T21:04:03.626Z,4.50
2018-01-28T21:06:30.889Z,4.85
2018-01-28T21:08:58.002Z,4.50
2018-01-28T21:11:24.367Z,4.53
2018-01-28T21:13:50.814Z,3.78
2018-01-28T21:16:17.923Z,4.12
2018-01-28T21:18:45.248Z,3.97
2018-01-28T21:21:11.589Z,3.80
2018-01-28T21:23:37.974Z,3.80
2018-01-28T21:26:05.032Z,2.50
2018-01-28T21:28:32.342Z,2.45
2018-01-28T21:30:58.623Z,2.22
2018-01-28T21:33:24.945Z,1.95
2018-01-28T21:35:52.531Z,1.70
2018-01-28T21:38:19.085Z,2.15
2018-01-28T21:40:46.402Z,2.80
2018-01-28T21:43:13.960Z,1.90
2018-01-28T21:45:40.412Z,2.17
2018-01-28T21:48:06.746Z,2.10
2018-01-28T21:50:33.037Z,2.20
2018-01-28T21:52:59.362Z,2.00
2018-01-28T21:55:25.681Z,2.42
2018-01-28T21:57:52.177Z,2.42
2018-01-28T22:00:19.448Z,2.33
2018-01-28T22:02:45.693Z,2.30
2018-01-28T22:05:12.011Z,2.60
2018-01-28T22:07:39.911Z,2.17
2018-01-28T22:10:06.218Z,2.00
2018-01-28T22:12:32.464Z,2.08
2018-01-28T22:14:58.725Z,2.22
2018-01-28T22:17:25.014Z,2.60
2018-01-28T22:19:51.264Z,2.53
2018-01-28T22:22:17.563Z,2.12
2018-01-28T22:24:43.826Z,1.85
2018-01-28T22:27:10.861Z,1.55
2018-01-28T22:29:37.096Z,1.55
2018-01-28T22:32:03.340Z,1.80
2018-01-28T22:34:29.619Z,2.05
2018-01-28T22:36:55.868Z,2.10
2018-01-28T22:39:29.215Z,2.10
2018-01-28T22:41:55.442Z,1.92
2018-01-28T22:44:21.722Z,2.00
2018-01-28T22:46:47.981Z,2.12
2018-01-28T22:49:14.964Z,1.85
2018-01-28T22:51:41.234Z,1.85
2018-01-28T22:54:07.445Z,1.95
2018-01-28T22:56:33.691Z,2.15
2018-01-28T22:58:59.942Z,3.22
2018-01-28T23:01:26.230Z,1.87
2018-01-28T23:03:53.252Z,1.80
2018-01-28T23:06:19.532Z,1.55
2018-01-28T23:08:45.775Z,1.70
2018-01-28T23:11:12.742Z,1.60
2018-01-28T23:13:39.021Z,1.85
2018-01-28T23:16:05.266Z,1.60
2018-01-28T23:18:31.593Z,2.00
2018-01-28T23:20:57.831Z,2.20
2018-01-28T23:23:24.061Z,1.73
2018-01-28T23:25:50.322Z,1.80
2018-01-28T23:28:16.553Z,2.10
2018-01-28T23:30:42.815Z,2.22
2018-01-28T23:33:09.074Z,2.10
2018-01-28T23:35:35.652Z,2.15
2018-01-28T23:38:01.873Z,1.65
2018-01-28T23:40:28.890Z,1.80
2018-01-28T23:42:55.176Z,2.10
2018-01-28T23:45:22.148Z,2.03
2018-01-28T23:47:49.180Z,1.85
2018-01-28T23:50:15.429Z,1.62
2018-01-28T23:52:41.697Z,1.87
2018-01-28T23:55:07.953Z,1.95
2018-01-28T23:57:34.236Z,1.80
